Time;durP1;ratioP1;P1;durP2;ratioP2;P2;SDS_P1;SDS_P2;PMS_P1;PMS_P2;Temp;Humidity;BMP_temperature;BMP_pressure;BME280_temperature;BME280_humidity;BME280_pressure;Samples;Min_cycle;Max_cycle;Signal;HPM_P1;HPM_P2
2022/01/30 00:00:35;;;;;;;25.00;6.07;;;9.70;61.10;;;12.82;46.48;101639.63;5054781;28;20224;-58
2022/01/30 00:03:03;;;;;;;26.93;5.40;;;9.70;60.80;;;12.81;46.52;101633.53;5051887;28;20193;-60
2022/01/30 00:05:31;;;;;;;23.97;6.57;;;9.80;60.70;;;12.81;45.89;101632.72;5055014;28;20209;-61
2022/01/30 00:07:58;;;;;;;15.53;4.27;;;9.80;60.10;;;12.80;46.11;101647.75;5052124;28;20186;-61
2022/01/30 00:10:26;;;;;;;17.73;5.27;;;9.80;60.10;;;12.80;46.13;101631.06;5070099;28;20209;-60
2022/01/30 00:12:58;;;;;;;26.70;7.03;;;9.80;59.90;;;12.80;45.83;101639.81;5054480;28;20186;-61
2022/01/30 00:15:42;;;;;;;17.77;5.13;;;9.80;59.80;;;12.79;45.91;101629.41;5054305;28;20218;-58
2022/01/30 00:18:20;;;;;;;23.33;5.57;;;9.80;59.90;;;12.75;46.07;101639.47;5053786;28;20190;-61
2022/01/30 00:21:02;;;;;;;21.23;5.90;;;9.80;60.10;;;12.71;45.78;101638.19;5054427;28;20226;-61
2022/01/30 00:23:30;;;;;;;25.73;6.17;;;9.70;59.90;;;12.67;46.10;101657.16;5051611;28;20205;-62
2022/01/30 00:25:59;;;;;;;13.47;4.77;;;9.70;60.10;;;12.64;46.08;101650.41;5034419;28;20191;-61
2022/01/30 00:28:27;;;;;;;20.27;5.20;;;9.70;60.20;;;12.60;46.32;101629.78;5033173;28;20624;-61
2022/01/30 00:30:55;;;;;;;29.47;6.33;;;9.70;60.30;;;12.58;46.11;101644.94;5034477;28;20283;-61
2022/01/30 00:33:23;;;;;;;18.93;5.63;;;9.60;60.10;;;12.55;46.37;101645.28;5032767;28;20220;-58
2022/01/30 00:35:50;;;;;;;16.10;5.60;;;9.60;60.40;;;12.53;46.26;101639.31;5034332;28;20548;-61
2022/01/30 00:38:21;;;;;;;22.60;5.27;;;9.60;60.50;;;12.54;46.20;101622.50;5034645;28;20771;-61
2022/01/30 00:40:52;;;;;;;32.37;6.50;;;9.60;60.50;;;12.55;46.30;101629.44;5034277;28;20670;-61
2022/01/30 00:43:20;;;;;;;28.63;7.03;;;9.50;60.20;;;12.52;46.13;101638.50;5034287;28;20218;-61
2022/01/30 00:45:50;;;;;;;21.83;5.80;;;9.50;60.60;;;12.52;46.32;101638.50;5034345;28;20510;-62
2022/01/30 00:48:17;;;;;;;22.30;5.80;;;9.50;60.70;;;12.51;46.46;101621.00;5034240;28;20294;-60
2022/01/30 00:50:45;;;;;;;20.90;5.93;;;9.50;60.60;;;12.52;46.27;101627.94;5033311;28;20725;-58
2022/01/30 00:53:14;;;;;;;18.57;5.80;;;9.50;60.40;;;12.51;46.23;101646.56;5033890;28;20296;-60
2022/01/30 00:55:42;;;;;;;24.27;6.07;;;9.50;60.40;;;12.51;46.46;101649.22;5046705;28;20566;-61
2022/01/30 00:58:10;;;;;;;18.00;4.53;;;9.50;60.30;;;12.50;46.26;101644.94;5053662;28;20190;-61
2022/01/30 01:00:37;;;;;;;15.70;4.83;;;9.60;60.40;;;12.47;46.29;101643.47;5052446;28;20189;-61
2022/01/30 01:03:06;;;;;;;21.63;5.73;;;9.60;60.30;;;12.45;46.17;101642.78;5053347;28;20201;-61
2022/01/30 01:05:35;;;;;;;26.20;5.47;;;9.50;60.00;;;12.41;46.15;101640.66;5054212;28;20190;-58
2022/01/30 01:11:01;;;;;;;25.07;6.37;;;9.40;60.50;;;12.27;46.46;101681.69;5032958;28;20213;-61
2022/01/30 01:24:10;;;;;;;17.37;5.50;;;9.20;62.20;;;12.22;47.15;101692.75;5033613;28;20230;-61
2022/01/30 01:26:38;;;;;;;17.80;5.73;;;9.20;62.40;;;12.26;47.36;101693.25;5033742;28;20187;-59
2022/01/30 01:29:08;;;;;;;17.23;5.00;;;9.20;62.70;;;12.28;47.48;101708.91;5033578;28;20195;-61
2022/01/30 01:31:35;;;;;;;15.87;5.03;;;9.30;62.80;;;12.33;47.36;101696.91;5031572;28;20199;-62
2022/01/30 01:34:29;;;;;;;21.27;5.67;;;9.30;62.70;;;12.37;47.62;101694.75;5039068;28;20300;-60
2022/01/30 01:36:57;;;;;;;21.63;6.30;;;9.40;62.50;;;12.37;47.14;101713.22;5053552;28;20212;-60
2022/01/30 01:39:25;;;;;;;13.60;4.90;;;9.40;62.30;;;12.36;47.23;101711.59;5053416;28;20217;-61
2022/01/30 01:41:53;;;;;;;27.67;5.97;;;9.40;62.00;;;12.36;47.32;101701.03;5052335;28;20209;-59
2022/01/30 01:44:38;;;;;;;22.77;4.97;;;9.40;62.00;;;12.37;47.34;101715.88;5052858;28;20248;-61
2022/01/30 01:47:08;;;;;;;19.37;5.83;;;9.40;61.80;;;12.41;47.09;101719.84;5053346;28;20193;-58
2022/01/30 01:49:39;;;;;;;19.03;5.57;;;9.40;61.90;;;12.41;46.95;101731.22;5053332;28;20708;-60
2022/01/30 01:54:47;;;;;;;17.50;4.57;;;9.30;61.80;;;12.44;47.50;101725.63;5033131;28;20213;-58
2022/01/30 01:57:15;;;;;;;23.53;5.23;;;9.40;62.70;;;12.47;47.75;101740.31;5033440;28;20266;-58
2022/01/30 01:59:42;;;;;;;15.00;4.90;;;9.40;63.60;;;12.48;48.19;101741.97;5032146;28;20217;-59
2022/01/30 02:02:10;;;;;;;21.33;5.37;;;9.40;64.90;;;12.47;48.83;101721.84;5032492;28;20216;-60
2022/01/30 02:04:41;;;;;;;21.13;5.93;;;9.30;65.10;;;12.44;48.40;101724.78;5032705;28;20244;-60
2022/01/30 02:09:42;;;;;;;21.53;6.30;;;9.20;64.40;;;12.29;48.67;101707.94;5053130;28;20565;-58
2022/01/30 02:12:33;;;;;;;26.10;5.77;;;9.20;65.00;;;12.20;48.82;101694.72;5053173;28;20194;-59
2022/01/30 02:15:15;;;;;;;17.73;4.90;;;9.20;64.30;;;12.17;48.83;101713.50;5053033;28;20218;-57
2022/01/30 02:26:04;;;;;;;27.53;6.80;;;9.20;63.60;;;12.16;48.56;101711.03;5032199;28;20190;-60
2022/01/30 02:28:33;;;;;;;23.20;5.73;;;9.20;63.50;;;12.20;48.23;101705.28;5033234;28;20225;-57
2022/01/30 02:31:06;;;;;;;26.60;7.40;;;9.20;63.60;;;12.24;48.64;101708.44;5032770;28;20194;-62
2022/01/30 02:33:34;;;;;;;23.77;6.67;;;9.20;63.90;;;12.29;48.47;101715.88;5032705;28;20261;-61
2022/01/30 02:36:02;;;;;;;21.40;5.70;;;9.30;63.60;;;12.32;48.16;101710.25;5032908;28;20224;-61
2022/01/30 02:38:31;;;;;;;20.23;5.63;;;9.30;63.60;;;12.37;48.04;101719.34;5034157;28;20194;-58
2022/01/30 02:40:59;;;;;;;24.90;6.20;;;9.40;63.80;;;12.42;48.18;101724.97;5049397;28;20585;-60
2022/01/30 02:43:34;;;;;;;30.20;6.77;;;9.40;63.30;;;12.45;47.90;101710.63;5055009;28;20209;-60
2022/01/30 02:48:46;;;;;;;31.50;6.40;;;9.40;62.50;;;12.38;47.49;101717.53;5056292;28;20182;-62
2022/01/30 02:51:17;;;;;;;29.40;7.57;;;9.40;62.20;;;12.40;47.63;101707.63;5056675;28;20199;-62
2022/01/30 02:53:54;;;;;;;27.27;7.40;;;9.40;62.20;;;12.39;47.20;101700.69;5054871;28;20246;-59
2022/01/30 02:56:22;;;;;;;22.20;6.40;;;9.40;62.40;;;12.39;46.99;101695.41;5053799;28;20243;-62
2022/01/30 02:58:50;;;;;;;24.87;6.83;;;9.30;61.50;;;12.37;46.26;101694.75;5056121;28;20279;-59
2022/01/30 03:01:17;;;;;;;24.57;5.87;;;9.20;60.70;;;12.34;46.33;101703.81;5055960;28;20197;-61
2022/01/30 03:03:44;;;;;;;23.93;6.67;;;9.20;60.80;;;12.29;46.46;101682.34;5055871;28;20218;-61
2022/01/30 03:06:12;;;;;;;23.47;6.33;;;9.20;60.40;;;12.28;46.73;101685.16;5056043;28;20185;-59
2022/01/30 03:08:39;;;;;;;22.17;5.83;;;9.30;60.70;;;12.27;46.35;101696.69;5055898;28;20194;-57
2022/01/30 03:11:08;;;;;;;20.30;5.97;;;9.30;60.70;;;12.24;46.66;101711.88;5054811;28;20239;-61
2022/01/30 03:13:36;;;;;;;18.23;5.90;;;9.30;60.80;;;12.24;46.55;101714.50;5053759;28;20221;-59
2022/01/30 03:16:04;;;;;;;24.63;5.33;;;9.30;61.20;;;12.27;46.56;101709.91;5055698;28;20240;-60
2022/01/30 03:18:32;;;;;;;15.37;4.93;;;9.30;60.40;;;12.28;46.17;101711.56;5055720;28;20277;-61
2022/01/30 03:20:59;;;;;;;14.93;4.97;;;9.30;60.10;;;12.32;46.06;101726.09;5055734;28;20272;-61
2022/01/30 03:23:28;;;;;;;23.47;6.00;;;9.40;60.10;;;12.35;45.98;101728.41;5055140;28;20215;-61
2022/01/30 03:25:59;;;;;;;27.73;6.77;;;9.40;59.90;;;12.38;45.89;101751.84;5055577;28;20182;-62
2022/01/30 03:28:30;;;;;;;22.23;5.10;;;9.30;59.80;;;12.36;45.95;101753.84;5035278;28;20202;-59
2022/01/30 03:31:01;;;;;;;20.97;6.23;;;9.30;59.80;;;12.32;45.81;101741.91;5035628;28;20737;-61
2022/01/30 03:33:29;;;;;;;24.93;5.97;;;9.30;59.90;;;12.28;46.08;101740.59;5035017;28;20301;-60
2022/01/30 03:35:56;;;;;;;22.63;6.70;;;9.30;60.00;;;12.24;45.99;101735.63;5035681;28;20207;-60
2022/01/30 03:38:24;;;;;;;23.70;5.93;;;9.20;59.80;;;12.21;45.92;101725.41;5035620;28;20221;-59
2022/01/30 03:40:53;;;;;;;24.60;6.63;;;9.20;59.80;;;12.15;45.95;101736.59;5035661;28;20186;-61
2022/01/30 03:43:21;;;;;;;16.40;6.23;;;9.20;59.90;;;12.08;45.96;101740.88;5036120;28;20660;-61
2022/01/30 03:45:50;;;;;;;31.43;7.27;;;9.20;59.80;;;12.04;45.68;101749.25;5035666;28;20675;-62
2022/01/30 03:48:18;;;;;;;20.30;5.87;;;9.20;59.40;;;12.04;45.98;101763.28;5035305;28;20196;-62
2022/01/30 03:50:45;;;;;;;19.10;5.50;;;9.00;59.50;;;12.03;46.02;101768.69;5032991;28;20206;-60
2022/01/30 03:53:13;;;;;;;26.50;6.27;;;9.10;59.80;;;12.05;46.17;101772.84;5034710;28;20293;-60
2022/01/30 03:55:40;;;;;;;22.60;6.47;;;9.00;59.50;;;12.03;45.55;101774.81;5017828;28;20196;-60
2022/01/30 03:58:08;;;;;;;23.90;6.53;;;9.00;59.30;;;12.03;45.44;101769.53;5035286;28;20658;-62
2022/01/30 04:00:36;;;;;;;31.03;7.20;;;9.00;59.10;;;12.03;45.14;101777.44;5036087;28;20207;-57
2022/01/30 04:03:04;;;;;;;31.90;7.87;;;9.00;58.30;;;12.05;44.68;101770.19;5034715;28;20212;-60
2022/01/30 04:05:32;;;;;;;20.33;6.50;;;9.10;57.70;;;12.08;44.37;101782.25;5034970;28;20192;-59
2022/01/30 04:08:02;;;;;;;17.40;6.13;;;9.10;57.40;;;12.09;44.07;101779.47;5034944;28;20279;-61
2022/01/30 04:10:31;;;;;;;26.70;7.37;;;9.10;56.60;;;12.09;44.01;101784.75;5035077;28;20190;-61
2022/01/30 04:12:59;;;;;;;29.03;6.50;;;9.10;57.20;;;12.08;43.66;101772.53;5034547;28;20190;-57
2022/01/30 04:15:28;;;;;;;28.57;7.97;;;9.10;56.10;;;12.03;42.97;101785.38;5035566;28;20241;-60
2022/01/30 04:17:57;;;;;;;19.20;5.90;;;9.10;55.60;;;12.01;43.43;101776.78;5054546;28;20216;-60
2022/01/30 04:20:26;;;;;;;19.80;5.57;;;9.10;55.60;;;12.01;43.02;101782.06;5054632;28;20196;-59
2022/01/30 04:22:54;;;;;;;23.23;6.63;;;9.10;55.20;;;12.00;42.66;101796.25;5053140;28;20537;-60
2022/01/30 04:25:21;;;;;;;29.23;6.57;;;9.10;55.20;;;11.98;42.33;101781.56;5054464;28;20277;-60
2022/01/30 04:27:49;;;;;;;24.87;6.60;;;9.00;54.80;;;11.97;42.52;101793.09;5054403;28;20269;-60
2022/01/30 04:30:18;;;;;;;23.50;6.63;;;9.10;55.00;;;11.95;42.36;101793.25;5054410;28;20204;-62
2022/01/30 04:32:45;;;;;;;23.30;5.77;;;9.10;54.80;;;11.94;42.54;101803.94;5052372;28;20213;-59
2022/01/30 04:35:34;;;;;;;22.10;6.67;;;9.00;55.10;;;11.92;42.99;101814.69;5053190;28;20530;-59
2022/01/30 04:57:15;;;;;;;29.37;6.60;;;8.80;56.20;;;11.82;43.58;101832.41;5053828;28;20223;-59
2022/01/30 05:00:05;;;;;;;23.37;6.47;;;8.90;56.40;;;11.83;43.35;101841.16;5052759;28;20507;-61
2022/01/30 05:02:48;;;;;;;17.83;5.43;;;8.90;56.10;;;11.80;43.58;101847.56;5053192;28;20236;-58
2022/01/30 05:08:03;;;;;;;22.03;6.70;;;8.90;56.20;;;11.75;42.63;101854.28;5033735;28;20205;-60
2022/01/30 05:10:32;;;;;;;24.77;6.13;;;8.80;54.70;;;11.71;42.40;101858.22;5033823;28;20592;-58
2022/01/30 05:13:03;;;;;;;29.93;7.30;;;8.80;54.60;;;11.70;42.07;101852.13;5033771;28;20651;-55
2022/01/30 05:15:32;;;;;;;17.57;5.50;;;8.80;54.10;;;11.70;42.24;101846.84;5033982;28;20664;-58
2022/01/30 05:18:00;;;;;;;17.03;5.13;;;8.80;54.20;;;11.73;41.74;101854.44;5016407;28;20241;-57
2022/01/30 05:20:29;;;;;;;26.77;6.70;;;8.80;54.10;;;11.76;42.13;101856.78;5033865;28;20190;-59
2022/01/30 05:22:57;;;;;;;23.63;5.90;;;8.80;54.10;;;11.79;41.67;101843.25;5046823;28;20736;-60
2022/01/30 05:25:26;;;;;;;19.13;6.50;;;8.80;53.90;;;11.80;41.50;101829.09;5052282;28;20288;-61
2022/01/30 05:27:55;;;;;;;16.10;5.73;;;8.80;53.80;;;11.81;41.68;101849.25;5053246;28;20553;-58
2022/01/30 05:30:23;;;;;;;17.97;6.13;;;8.90;53.90;;;11.85;41.38;101844.47;5053287;28;20654;-61
2022/01/30 05:32:51;;;;;;;19.30;5.33;;;8.90;54.00;;;11.89;42.04;101857.19;5052476;28;20269;-60
2022/01/30 05:35:19;;;;;;;17.67;5.70;;;8.90;54.20;;;11.92;41.53;101850.78;5052240;28;20201;-59
2022/01/30 05:37:48;;;;;;;22.07;5.93;;;8.90;54.20;;;11.95;42.06;101858.38;5048266;28;20313;-57
2022/01/30 05:40:16;;;;;;;35.70;8.67;;;8.90;54.20;;;11.96;41.76;101868.78;5033275;28;20195;-57
2022/01/30 05:42:44;;;;;;;22.23;6.20;;;8.90;54.50;;;11.94;42.10;101860.19;5033278;28;20192;-61
2022/01/30 05:45:54;;;;;;;31.57;7.80;;;8.90;55.10;;;11.95;42.53;101861.84;5033413;28;20656;-60
2022/01/30 05:48:17;;;;;;;31.00;7.87;;;8.90;55.70;;;11.92;42.85;101872.72;5032835;28;20551;-58
2022/01/30 05:50:46;;;;;;;33.30;8.23;;;8.90;55.50;;;11.89;42.62;101843.16;5033322;28;20241;-60
2022/01/30 05:53:13;;;;;;;24.17;6.73;;;8.80;55.50;;;11.84;42.72;101848.09;5032756;28;20210;-57
2022/01/30 05:55:41;;;;;;;20.63;6.13;;;8.80;55.40;;;11.79;42.43;101845.91;5050054;28;20256;-56
2022/01/30 05:58:09;;;;;;;27.00;7.10;;;8.80;55.30;;;11.78;42.29;101852.19;5052620;28;20229;-55
2022/01/30 06:00:38;;;;;;;26.77;6.70;;;8.80;54.80;;;11.76;42.39;101851.50;5053963;28;20504;-60
2022/01/30 06:03:05;;;;;;;14.63;4.97;;;8.80;54.90;;;11.77;42.19;101861.06;5054103;28;20217;-60
2022/01/30 06:05:33;;;;;;;22.60;6.13;;;8.80;54.90;;;11.77;42.25;101858.41;5053511;28;20680;-60
2022/01/30 06:08:10;;;;;;;20.50;5.77;;;8.80;54.80;;;11.76;42.45;101851.50;5053154;28;20217;-59
2022/01/30 06:10:37;;;;;;;20.83;6.33;;;8.80;54.70;;;11.74;41.78;101864.03;5051380;28;20190;-59
2022/01/30 06:13:04;;;;;;;17.93;6.20;;;8.80;54.40;;;11.75;41.85;101875.38;5053166;28;20579;-60
2022/01/30 06:15:32;;;;;;;23.90;6.30;;;8.80;54.40;;;11.73;41.63;101878.19;5055849;28;20235;-59
2022/01/30 06:18:01;;;;;;;25.77;7.13;;;8.70;54.00;;;11.70;42.10;101872.38;5055664;28;20241;-60
2022/01/30 06:20:28;;;;;;;19.70;6.57;;;8.70;53.80;;;11.66;42.16;101898.22;5056800;28;20193;-59
2022/01/30 06:22:55;;;;;;;26.03;7.83;;;8.70;54.20;;;11.62;41.59;101888.97;5055270;28;20538;-59
2022/01/30 06:25:23;;;;;;;24.13;6.83;;;8.60;54.10;;;11.58;42.21;101895.50;5055614;28;20309;-60
2022/01/30 06:27:50;;;;;;;24.37;6.53;;;8.60;54.50;;;11.56;42.69;101900.09;5055189;28;20217;-58
2022/01/30 06:30:21;;;;;;;20.60;5.70;;;8.50;54.70;;;11.52;42.50;101896.13;5055516;28;20289;-59
2022/01/30 06:32:50;;;;;;;20.30;5.90;;;8.60;55.10;;;11.54;42.92;101920.53;5056308;28;20194;-58
2022/01/30 06:35:18;;;;;;;27.57;7.70;;;8.60;55.20;;;11.54;42.83;101924.00;5056528;28;20277;-59
2022/01/30 06:37:46;;;;;;;26.23;6.90;;;8.60;55.10;;;11.55;42.62;101927.47;5056503;28;20220;-58
2022/01/30 06:40:13;;;;;;;20.43;5.60;;;8.60;55.30;;;11.51;42.10;101929.56;5056598;28;20194;-60
2022/01/30 06:42:41;;;;;;;27.53;7.03;;;8.50;54.80;;;11.50;42.60;101953.44;5055391;28;20190;-61
2022/01/30 06:45:09;;;;;;;17.33;5.60;;;8.50;54.60;;;11.48;41.77;101937.75;5036415;28;20214;-60
2022/01/30 06:47:41;;;;;;;19.70;5.63;;;8.60;53.90;;;11.47;41.79;101953.75;5036266;28;20283;-58
2022/01/30 06:50:09;;;;;;;22.57;5.90;;;8.60;53.00;;;11.46;41.01;101959.97;5036038;28;20629;-59
2022/01/30 06:52:39;;;;;;;17.13;5.30;;;8.60;52.70;;;11.45;41.30;101963.59;5036019;28;20225;-60
2022/01/30 06:55:08;;;;;;;20.50;6.47;;;8.60;52.90;;;11.44;41.30;101977.75;5035192;28;20214;-59
2022/01/30 06:57:41;;;;;;;18.17;5.30;;;8.60;52.30;;;11.42;40.81;101985.00;5036149;28;20238;-59
2022/01/30 07:00:10;;;;;;;29.50;6.63;;;8.60;52.10;;;11.43;40.68;101991.94;5037171;28;20202;-62
2022/01/30 07:02:38;;;;;;;18.83;5.80;;;8.60;51.70;;;11.42;40.32;102003.44;5035503;28;20198;-56
2022/01/30 07:05:07;;;;;;;20.17;5.83;;;8.60;51.80;;;11.43;40.01;102002.47;5034879;28;20672;-59
2022/01/30 07:07:34;;;;;;;20.87;5.70;;;8.50;51.20;;;11.43;40.48;102002.47;5018446;28;20281;-57
2022/01/30 07:10:06;;;;;;;25.87;7.67;;;8.50;51.20;;;11.46;39.66;102008.25;5036550;28;20257;-58
2022/01/30 07:12:34;;;;;;;18.10;5.53;;;8.50;50.80;;;11.47;39.88;102003.84;5034132;28;20216;-57
2022/01/30 07:15:02;;;;;;;14.80;4.77;;;8.50;50.70;;;11.49;39.43;102013.25;5035477;28;20309;-61
2022/01/30 07:17:29;;;;;;;16.17;5.07;;;8.50;51.00;;;11.52;39.61;102018.22;5037060;28;20215;-61
2022/01/30 07:19:57;;;;;;;18.00;4.90;;;8.50;51.00;;;11.58;40.03;102022.91;5035886;28;20225;-57
2022/01/30 07:22:27;;;;;;;16.67;5.07;;;8.60;50.80;;;11.64;39.75;102020.66;5035633;28;20241;-59
2022/01/30 07:24:55;;;;;;;18.67;4.93;;;8.60;50.40;;;11.69;38.98;102013.97;5035811;28;20289;-60
2022/01/30 07:27:24;;;;;;;24.03;5.40;;;8.60;50.10;;;11.74;38.78;102021.44;5035808;28;20500;-61
2022/01/30 07:29:52;;;;;;;17.77;4.70;;;8.70;50.20;;;11.78;39.20;102026.25;5035307;28;20202;-57
2022/01/30 07:32:19;;;;;;;16.47;5.67;;;8.70;50.30;;;11.81;39.09;102033.88;5036492;28;20270;-59
2022/01/30 07:34:50;;;;;;;18.37;4.77;;;8.80;50.10;;;11.86;38.96;102036.06;5035531;28;20276;-60
2022/01/30 07:37:18;;;;;;;19.57;5.53;;;8.80;50.00;;;11.89;38.92;102041.84;5034271;28;20725;-60
2022/01/30 07:39:46;;;;;;;18.10;5.03;;;8.80;50.00;;;11.91;39.17;102039.88;5035350;28;20652;-60
2022/01/30 07:42:14;;;;;;;17.63;5.10;;;8.90;50.40;;;11.94;39.27;102052.78;5054038;28;20201;-59
2022/01/30 07:44:42;;;;;;;20.13;5.53;;;8.90;50.50;;;11.98;39.26;102048.06;5053757;28;20212;-60
2022/01/30 07:47:15;;;;;;;21.87;5.90;;;9.00;50.60;;;12.01;39.35;102055.66;5055380;28;20205;-61
2022/01/30 07:49:43;;;;;;;25.33;6.00;;;9.00;50.60;;;12.06;39.12;102054.22;5055384;28;20270;-60
2022/01/30 07:52:10;;;;;;;18.73;5.70;;;9.00;50.50;;;12.08;39.19;102054.91;5055035;28;20344;-62
2022/01/30 07:54:38;;;;;;;19.27;5.40;;;9.00;50.70;;;12.10;39.41;102050.28;5047057;28;20305;-61
2022/01/30 07:57:06;;;;;;;22.37;5.37;;;9.00;50.70;;;12.13;39.25;102049.16;5033749;28;20212;-61
2022/01/30 07:59:33;;;;;;;15.73;5.83;;;9.00;50.50;;;12.14;38.72;102062.22;5034871;28;20190;-59
2022/01/30 08:02:02;;;;;;;15.60;4.93;;;9.10;50.20;;;12.18;38.76;102038.97;5034694;28;20283;-61
2022/01/30 08:04:30;;;;;;;17.87;5.97;;;9.10;50.10;;;12.21;38.49;102060.63;5034220;28;20214;-55
2022/01/30 08:06:59;;;;;;;23.93;5.77;;;9.10;49.80;;;12.22;38.74;102059.63;5034543;28;20636;-60
2022/01/30 08:09:27;;;;;;;18.67;5.40;;;9.10;50.10;;;12.24;39.05;102062.13;5034912;28;20600;-61
2022/01/30 08:11:55;;;;;;;20.17;5.17;;;9.10;50.10;;;12.27;38.65;102060.97;5035819;28;20198;-60
2022/01/30 08:14:23;;;;;;;13.80;5.07;;;9.10;50.20;;;12.28;38.73;102078.47;5034258;28;20208;-60
2022/01/30 08:16:50;;;;;;;21.77;6.37;;;9.10;50.60;;;12.31;38.65;102086.09;5034470;28;20224;-57
2022/01/30 08:19:21;;;;;;;18.70;5.73;;;9.10;50.40;;;12.30;38.98;102100.28;5034625;28;20233;-59
2022/01/30 08:21:53;;;;;;;28.43;8.07;;;9.10;50.40;;;12.31;39.34;102104.59;5033522;28;20667;-58
2022/01/30 08:24:22;;;;;;;25.17;6.27;;;9.10;50.90;;;12.30;39.32;102109.03;5034346;28;20572;-61
2022/01/30 08:26:49;;;;;;;24.80;6.30;;;9.10;51.10;;;12.31;39.41;102129.19;5035696;28;20203;-60
2022/01/30 08:29:17;;;;;;;21.77;6.67;;;9.20;51.40;;;12.31;39.20;102120.44;5034525;28;20186;-61
2022/01/30 08:31:44;;;;;;;31.77;7.33;;;9.20;51.40;;;12.35;39.62;102137.63;5034480;28;20194;-61
2022/01/30 08:34:12;;;;;;;18.83;5.73;;;9.20;51.50;;;12.38;39.77;102137.31;5033834;28;20214;-60
2022/01/30 08:36:40;;;;;;;23.50;7.43;;;9.30;51.70;;;12.45;39.34;102149.78;5033812;28;20270;-61
2022/01/30 08:39:07;;;;;;;22.93;6.30;;;9.30;51.60;;;12.57;39.43;102147.72;5035117;28;20210;-60
2022/01/30 08:41:35;;;;;;;21.10;5.77;;;9.40;51.60;;;12.71;39.59;102155.09;5053038;28;20625;-61
2022/01/30 08:44:02;;;;;;;21.77;6.27;;;9.50;51.80;;;12.82;39.14;102149.56;5053659;28;20212;-60
2022/01/30 08:46:31;;;;;;;25.23;6.73;;;9.60;51.40;;;12.85;39.38;102159.81;5053998;28;20208;-58
2022/01/30 08:48:59;;;;;;;20.27;6.30;;;9.60;51.10;;;12.89;38.75;102164.66;5053802;28;20178;-61
2022/01/30 08:51:26;;;;;;;23.73;7.40;;;9.70;50.70;;;12.89;38.66;102169.09;5054186;28;20572;-61
2022/01/30 08:53:55;;;;;;;22.43;5.97;;;9.70;50.50;;;12.90;38.48;102165.47;5052323;28;20212;-60
2022/01/30 08:56:22;;;;;;;25.70;7.57;;;9.70;50.30;;;12.90;38.35;102170.78;5052319;28;20197;-61
2022/01/30 08:58:50;;;;;;;28.97;7.70;;;9.70;49.80;;;12.87;37.98;102160.50;5069232;28;20658;-61
2022/01/30 09:01:17;;;;;;;25.93;6.73;;;9.50;49.60;;;12.79;38.42;102157.78;5053018;28;20214;-61
2022/01/30 09:03:45;;;;;;;24.17;6.33;;;9.50;50.40;;;12.74;38.64;102154.81;5053394;28;20610;-59
2022/01/30 09:06:12;;;;;;;30.33;7.83;;;9.50;50.80;;;12.72;39.43;102170.78;5052328;28;20202;-59
2022/01/30 09:08:40;;;;;;;36.30;9.13;;;9.50;51.70;;;12.72;39.56;102164.66;5053738;28;20220;-61
2022/01/30 09:11:08;;;;;;;20.83;6.53;;;9.40;52.00;;;12.67;39.68;102169.59;5053508;28;20224;-61
2022/01/30 09:13:36;;;;;;;26.33;6.87;;;9.40;51.90;;;12.66;39.53;102157.38;5050292;28;20224;-61
2022/01/30 09:16:04;;;;;;;32.17;7.83;;;9.40;51.80;;;12.76;39.59;102169.53;5053465;28;20607;-60
2022/01/30 09:18:31;;;;;;;28.17;7.67;;;9.50;51.70;;;12.91;39.04;102157.38;5051928;28;20296;-59
2022/01/30 09:20:59;;;;;;;25.10;7.57;;;9.60;51.40;;;13.06;39.18;102160.34;5053048;28;20559;-60
2022/01/30 09:23:26;;;;;;;27.20;7.77;;;9.70;51.20;;;13.22;38.78;102175.44;5052962;28;20709;-62
2022/01/30 09:25:53;;;;;;;29.50;7.70;;;9.80;50.90;;;13.36;38.42;102173.06;5052544;28;20647;-61
2022/01/30 09:28:22;;;;;;;23.10;7.10;;;10.00;49.80;;;13.53;38.07;102169.53;5053181;28;20194;-59
2022/01/30 09:30:50;;;;;;;21.60;6.97;;;10.10;49.60;;;13.66;37.60;102169.09;5032501;28;20210;-61
2022/01/30 09:33:17;;;;;;;28.97;8.10;;;10.20;49.30;;;13.75;37.65;102157.53;5032820;28;20214;-60
2022/01/30 09:35:44;;;;;;;31.13;7.73;;;10.30;49.30;;;13.83;37.44;102146.16;5033130;28;20266;-62
2022/01/30 09:38:12;;;;;;;26.03;6.70;;;10.40;48.50;;;13.86;37.14;102122.03;5032074;28;20305;-59
2022/01/30 09:40:39;;;;;;;29.87;7.60;;;10.40;48.40;;;13.94;37.14;102129.97;5015728;28;20195;-61
2022/01/30 09:43:08;;;;;;;32.63;8.60;;;10.50;48.30;;;13.96;36.95;102134.09;5032546;28;20603;-60
2022/01/30 09:45:38;;;;;;;31.07;9.17;;;10.60;48.10;;;14.07;36.78;102133.00;5037483;28;20231;-62
2022/01/30 09:48:07;;;;;;;25.07;7.50;;;10.60;47.70;;;14.12;37.07;102154.50;5050268;28;20196;-61
2022/01/30 09:50:35;;;;;;;25.53;9.13;;;10.70;48.20;;;14.17;36.76;102162.78;5052987;28;20217;-59
2022/01/30 09:53:02;;;;;;;31.33;9.20;;;10.80;48.00;;;14.17;36.90;102160.13;5052630;28;20575;-61
2022/01/30 09:55:30;;;;;;;33.30;9.00;;;10.80;48.10;;;14.15;37.06;102148.88;5052155;28;20228;-59
2022/01/30 09:57:57;;;;;;;25.37;8.00;;;10.80;48.40;;;14.35;37.00;102150.28;5052867;28;20201;-59
2022/01/30 10:00:25;;;;;;;25.47;8.43;;;10.80;48.70;;;14.68;37.25;102157.22;5053090;28;20247;-60
2022/01/30 10:02:53;;;;;;;25.80;7.90;;;11.00;49.10;;;15.18;36.78;102172.09;5050668;28;20578;-61
2022/01/30 10:05:21;;;;;;;30.77;9.07;;;11.30;49.30;;;15.48;36.10;102172.19;5051595;28;20281;-61
2022/01/30 10:07:52;;;;;;;29.00;7.90;;;11.60;48.20;;;15.59;35.92;102189.59;5051738;28;20227;-62
2022/01/30 10:10:24;;;;;;;35.40;8.53;;;11.80;48.00;;;15.73;35.64;102183.56;5052606;28;20186;-60
2022/01/30 10:13:05;;;;;;;29.50;8.63;;;11.90;47.90;;;15.68;35.88;102169.97;5051138;28;20623;-60
2022/01/30 10:15:51;;;;;;;25.37;7.37;;;11.90;47.70;;;15.67;35.57;102165.63;5049973;28;20194;-60
2022/01/30 10:18:21;;;;;;;28.63;8.33;;;12.00;47.50;;;15.84;36.09;102177.84;5035271;28;20221;-60
2022/01/30 10:20:48;;;;;;;27.87;8.87;;;12.10;47.80;;;16.03;35.30;102195.19;5034557;28;20276;-60
2022/01/30 10:23:16;;;;;;;26.70;7.73;;;12.30;47.10;;;16.10;35.13;102194.31;5032731;28;20573;-62
2022/01/30 10:25:53;;;;;;;29.13;8.17;;;12.40;46.90;;;16.21;35.17;102217.00;5032093;28;20200;-59
2022/01/30 10:28:27;;;;;;;28.90;8.43;;;12.60;46.60;;;16.16;34.47;102230.78;5032962;28;20190;-57
2022/01/30 10:30:58;;;;;;;22.70;7.53;;;12.50;45.80;;;16.03;34.84;102229.72;5032030;28;20205;-61
2022/01/30 10:33:41;;;;;;;22.50;7.13;;;12.50;46.10;;;15.91;34.93;102220.47;5035063;28;20261;-60
2022/01/30 10:36:10;;;;;;;24.77;7.00;;;12.50;45.80;;;16.20;34.25;102218.00;5033509;28;20198;-59
2022/01/30 10:38:40;;;;;;;19.23;7.20;;;12.50;44.50;;;16.50;33.78;102232.25;5015348;28;20220;-60
2022/01/30 10:41:19;;;;;;;22.83;6.27;;;12.70;45.10;;;16.78;33.62;102234.25;5032569;28;20213;-60
2022/01/30 10:43:54;;;;;;;22.53;7.07;;;12.90;44.00;;;17.18;32.03;102233.09;5032363;28;20217;-60
2022/01/30 10:46:25;;;;;;;30.00;8.07;;;13.20;42.50;;;17.55;31.19;102229.56;5032646;28;20197;-56
2022/01/30 10:48:57;;;;;;;22.40;6.87;;;13.40;40.90;;;17.90;30.11;102234.13;5041089;28;20249;-62
2022/01/30 10:51:26;;;;;;;21.80;7.20;;;13.60;39.30;;;18.10;29.44;102224.56;5052810;28;20627;-59
2022/01/30 10:53:56;;;;;;;24.50;7.50;;;13.80;39.00;;;18.17;29.93;102225.47;5051912;28;20224;-62
2022/01/30 10:56:27;;;;;;;23.80;7.07;;;14.00;40.60;;;18.32;29.95;102238.75;5052295;28;20666;-61
2022/01/30 10:59:06;;;;;;;27.53;7.27;;;14.30;39.70;;;18.29;29.71;102228.47;5052745;28;20297;-62
2022/01/30 11:01:34;;;;;;;30.60;8.60;;;14.30;39.00;;;18.13;29.68;102239.34;5054210;28;20213;-62
2022/01/30 11:04:04;;;;;;;23.33;7.83;;;14.10;39.10;;;18.00;29.89;102237.34;5053269;28;20210;-63
2022/01/30 11:06:39;;;;;;;27.37;9.27;;;14.10;39.40;;;18.12;30.38;102248.34;5037629;28;20273;-61
2022/01/30 11:09:12;;;;;;;24.47;8.60;;;14.10;40.10;;;17.94;30.15;102240.75;5049495;28;20217;-60
2022/01/30 11:11:44;;;;;;;22.67;7.47;;;14.00;39.60;;;17.78;30.48;102245.47;5053594;28;20205;-63